Latest Weather Observations for Warruwi

IDD60801

Issued at 8:01 am CST Monday 20 April 2015 (issued every 30 minutes, with the page automatically refreshed every 10 minutes)

About weather observations | Map of weather stations | Latest weather observations for NT | Other Formats
Station Details ID: 014401 Name: WARRUWI AIRPORT Lat: -11.65 Lon: 133.38 Height: 19.2 m
Data from the previous 72 hours. | See also: Recent months at Warruwi
Date/Time
CST
Temp
°C
App
Temp
°C
Dew
Point
Rel
Hum
%
Delta-T
°C
Wind Press
QNH
hPa
Press
MSL
hPa
Rain
since 9 am
mm
Dir
 
Spd
km/h
Gust
km/h
Spd
kts
Gust
kts
20/08:00am 27.9 29.9 24.5 82 2.4 ESE 22 32 12 17 1012.1 1011.9 0.0
20/07:30am 27.6 29.5 24.4 83 2.2 ESE 22 32 12 17 1011.9 1011.7 0.0
20/07:00am 27.2 28.9 24.1 83 2.1 ESE 22 32 12 17 1011.4 1011.2 0.0
20/06:30am 27.2 28.8 23.9 82 2.3 ESE 22 32 12 17 1011.2 1011.0 0.0
20/06:00am 27.2 29.1 23.7 81 2.4 ESE 20 30 11 16 1011.2 1011.0 0.0
20/05:30am 27.4 29.4 23.6 80 2.6 SE 19 28 10 15 1010.9 1010.7 0.0
20/05:00am 27.4 29.8 23.6 80 2.6 SE 17 28 9 15 1010.9 1010.7 0.0
20/04:30am 27.5 29.4 23.7 80 2.6 SE 20 28 11 15 1010.9 1010.7 0.0
20/04:00am 27.6 29.6 23.6 79 2.7 SE 19 26 10 14 1010.5 1010.3 0.0
20/03:30am 27.7 29.5 23.3 77 3.0 SE 19 32 10 17 1010.8 1010.6 0.0
20/03:00am 27.8 29.4 23.2 76 3.1 SE 20 30 11 16 1010.8 1010.6 0.0
20/02:30am 28.0 29.9 23.4 76 3.2 ESE 19 28 10 15 1011.0 1010.8 0.0
20/02:00am 28.3 29.8 23.0 73 3.6 SE 20 33 11 18 1011.1 1010.9 0.0
20/01:30am 28.5 30.2 23.0 72 3.8 SE 19 26 10 14 1011.6 1011.4 0.0
20/01:00am 28.7 30.3 22.9 71 4.0 SE 19 26 10 14 1011.9 1011.7 0.0
20/12:30am 28.9 30.9 22.9 70 4.1 SE 17 28 9 15 1012.2 1012.0 0.0
20/12:00am 28.8 31.1 23.5 73 3.6 SE 17 32 9 17 1012.6 1012.4 0.0
 
Date/Time
CST
Temp
°C
App
Temp
°C
Dew
Point
Rel
Hum
%
Delta-T
°C
Wind Press
QNH
hPa
Press
MSL
hPa
Rain
since 9 am
mm
Dir
 
Spd
km/h
Gust
km/h
Spd
kts
Gust
kts
19/11:30pm 28.4 32.9 24.6 80 2.6 SE 9 15 5 8 1012.7 1012.5 0.0
19/11:00pm 28.2 33.3 25.0 83 2.2 SE 7 11 4 6 1012.7 1012.5 0.0
19/10:30pm 28.6 33.1 25.2 82 2.4 ESE 11 17 6 9 1012.6 1012.4 0.0
19/10:00pm 28.3 32.5 24.7 81 2.5 ESE 11 15 6 8 1012.2 1012.0 0.0
19/09:30pm 28.3 32.6 24.3 79 2.8 ESE 9 15 5 8 1011.8 1011.6 0.0
19/09:00pm 28.2 32.5 24.2 79 2.8 ESE 9 13 5 7 1011.6 1011.4 0.0
19/08:30pm 28.0 32.6 23.8 78 2.9 SE 6 9 3 5 1011.3 1011.1 0.0
19/08:00pm 28.2 32.3 23.3 75 3.4 ESE 7 13 4 7 1010.7 1010.5 0.0
19/07:30pm 28.5 32.7 23.4 74 3.5 SE 7 11 4 6 1010.3 1010.1 0.0
19/07:00pm 28.7 32.6 23.6 74 3.5 SE 9 13 5 7 1009.7 1009.5 0.0
19/06:30pm 28.7 31.3 24.0 76 3.3 ESE 17 26 9 14 1009.6 1009.4 0.0
19/06:00pm 29.7 32.7 24.6 74 3.6 E 17 28 9 15 1009.3 1009.1 0.0
19/05:30pm 30.1 33.8 24.5 72 3.9 E 13 20 7 11 1009.4 1009.2 0.0
19/05:00pm 30.9 36.0 25.0 71 4.2 ENE 7 13 4 7 1009.1 1008.9 0.0
19/04:30pm 30.6 34.3 24.5 70 4.3 ENE 13 22 7 12 1009.3 1009.1 0.0
19/04:00pm 30.9 34.5 24.3 68 4.6 ENE 13 26 7 14 1009.5 1009.3 0.0
19/03:30pm 31.0 34.1 24.1 66 4.8 ENE 15 30 8 16 1009.4 1009.2 0.0
19/03:00pm 31.0 34.1 24.1 66 4.8 ENE 15 26 8 14 1009.5 1009.3 0.0
19/02:30pm 31.3 34.0 24.2 66 5.0 ENE 17 28 9 15 1009.8 1009.6 0.0
19/02:00pm 31.1 34.2 24.2 66 4.8 ENE 15 24 8 13 1010.1 1009.9 0.0
19/01:30pm 31.0 34.1 24.1 66 4.8 E 15 24 8 13 1010.5 1010.3 0.0
19/01:00pm 31.0 34.5 24.9 70 4.3 E 15 20 8 11 1010.7 1010.5 0.0
19/12:30pm 31.2 35.2 25.1 70 4.3 E 13 19 7 10 1010.9 1010.7 0.0
19/12:00pm 30.6 34.4 24.0 68 4.6 E 11 17 6 9 1011.3 1011.1 0.0
19/11:30am 29.8 33.7 24.2 72 3.9 E 11 17 6 9 1011.7 1011.5 0.0
19/11:00am 30.1 33.4 24.5 72 3.9 ESE 15 20 8 11 1012.1 1011.9 0.0
19/10:30am 29.9 33.5 24.3 72 3.9 E 13 19 7 10 1012.3 1012.1 0.0
19/10:00am 29.4 32.6 24.3 74 3.5 ESE 15 19 8 10 1012.4 1012.2 0.0
19/09:30am 29.2 32.5 24.5 76 3.3 ESE 15 19 8 10 1012.4 1012.2 0.0
19/09:00am 29.1 33.0 24.2 75 3.4 ESE 11 15 6 8 1012.6 1012.4 4.6
19/08:30am 28.9 32.8 24.2 76 3.3 ESE 11 19 6 10 1012.6 1012.4 4.6
19/08:00am 28.0 31.9 24.2 80 2.6 ESE 11 17 6 9 1012.6 1012.4 4.6
19/07:30am 27.0 30.8 24.1 84 2.0 SE 11 17 6 9 1012.5 1012.3 4.6
19/07:00am 26.2 30.3 23.9 87 1.6 SE 9 15 5 8 1012.1 1011.9 4.6
19/06:30am 26.1 30.0 23.6 86 1.7 SE 9 15 5 8 1011.8 1011.6 4.6
19/06:00am 26.6 29.4 23.7 84 2.0 SE 15 20 8 11 1011.6 1011.4 4.6
19/05:30am 26.8 30.0 23.7 83 2.1 ESE 13 20 7 11 1011.3 1011.1 4.6
19/05:00am 26.8 29.1 23.5 82 2.3 ESE 17 26 9 14 1011.2 1011.0 4.6
19/04:30am 26.9 28.8 23.4 81 2.4 ESE 19 26 10 14 1011.2 1011.0 4.6
19/04:00am 26.9 28.7 23.2 80 2.5 ESE 19 24 10 13 1011.2 1011.0 4.6
19/03:30am 26.8 29.0 23.3 81 2.4 ESE 17 24 9 13 1011.2 1011.0 4.6
19/03:00am 27.0 28.8 23.3 80 2.5 ESE 19 28 10 15 1011.1 1010.9 4.6
19/02:30am 26.8 30.2 24.1 85 1.9 ESE 13 19 7 10 1011.4 1011.2 4.6
19/02:00am 26.6 32.0 25.2 92 1.0 E 6 7 3 4 1011.8 1011.6 4.6
19/01:30am 26.5 32.1 25.8 96 0.5 SE 7 9 4 5 1011.8 1011.6 4.6
19/01:00am 26.1 31.9 25.8 98 0.2 ESE 6 7 3 4 1012.1 1011.9 4.6
19/12:30am 25.4 31.9 25.1 98 0.2 CALM 0 4 0 2 1012.6 1012.4 3.4
19/12:00am 25.1 31.3 24.6 97 0.3 CALM 0 4 0 2 1012.7 1012.5 3.4
 
Date/Time
CST
Temp
°C
App
Temp
°C
Dew
Point
Rel
Hum
%
Delta-T
°C
Wind Press
QNH
hPa
Press
MSL
hPa
Rain
since 9 am
mm
Dir
 
Spd
km/h
Gust
km/h
Spd
kts
Gust
kts
18/11:30pm 24.7 29.6 23.7 94 0.7 WSW 4 6 2 3 1012.6 1012.4 3.2
18/11:00pm 25.8 28.2 23.7 88 1.4 SE 17 39 9 21 1013.1 1012.9 0.8
18/10:30pm 28.1 31.9 24.1 79 2.8 E 11 20 6 11 1012.7 1012.5 0.0
18/10:00pm 28.9 32.8 23.6 73 3.7 ENE 9 17 5 9 1012.6 1012.4 0.0
18/09:30pm 29.0 33.6 24.1 75 3.4 ENE 7 11 4 6 1012.4 1012.2 0.0
18/09:00pm 28.8 33.4 24.1 76 3.3 ENE 7 15 4 8 1012.1 1011.9 0.0
18/08:30pm 28.6 32.9 23.7 75 3.4 NE 7 13 4 7 1011.8 1011.6 0.0
18/08:00pm 28.1 32.3 23.2 74 3.4 ENE 6 11 3 6 1011.4 1011.2 0.0
18/07:30pm 28.4 32.3 22.9 72 3.8 ENE 7 13 4 7 1011.0 1010.8 0.0
18/07:00pm 28.8 32.0 22.3 68 4.4 ENE 9 22 5 12 1010.6 1010.4 0.0
18/06:30pm 28.9 31.8 22.4 68 4.4 ENE 11 22 6 12 1010.2 1010.0 0.0
18/06:00pm 29.1 31.8 22.8 69 4.3 ENE 13 22 7 12 1010.1 1009.9 0.0
18/05:30pm 29.5 31.6 22.5 66 4.8 ENE 15 24 8 13 1010.0 1009.8 0.0
18/05:00pm 30.2 33.2 23.4 67 4.7 ENE 13 20 7 11 1009.5 1009.3 0.0
18/04:30pm 30.4 33.4 23.3 66 4.9 ENE 13 24 7 13 1009.2 1009.0 0.0
18/04:00pm 30.5 33.0 23.2 65 5.0 ENE 15 24 8 13 1009.1 1008.9 0.0
18/03:30pm 30.9 33.6 22.8 62 5.6 ENE 13 24 7 13 1009.3 1009.1 0.0
18/03:00pm 31.3 34.0 22.9 61 5.8 ENE 13 22 7 12 1009.5 1009.3 0.0
18/02:30pm 30.9 33.0 22.5 61 5.7 ENE 15 24 8 13 1009.9 1009.7 0.0
18/02:00pm 30.6 33.0 23.0 64 5.2 E 15 22 8 12 1010.5 1010.3 0.0
18/01:30pm 30.4 33.2 23.6 67 4.7 E 15 24 8 13 1010.6 1010.4 0.0
18/01:00pm 30.3 32.5 23.2 65 4.9 E 17 26 9 14 1010.9 1010.7 0.0
18/12:30pm 30.8 32.6 23.2 64 5.2 E 19 24 10 13 1011.2 1011.0 0.0
18/12:00pm 30.4 31.9 23.1 65 5.0 E 20 28 11 15 1011.5 1011.3 0.0
18/11:30am 30.3 32.1 23.2 65 4.9 E 19 26 10 14 1012.0 1011.8 0.0
18/11:00am 29.9 31.8 23.8 70 4.2 E 20 28 11 15 1012.6 1012.4 0.0
18/10:30am 29.5 31.2 23.4 69 4.2 ESE 20 28 11 15 1012.9 1012.7 0.0
18/10:00am 29.4 31.4 23.6 71 4.0 E 19 26 10 14 1012.9 1012.7 0.0
18/09:30am 29.2 31.4 23.9 73 3.7 ESE 19 26 10 14 1012.9 1012.7 0.0
18/09:00am 28.7 32.1 24.7 79 2.8 ESE 15 20 8 11 1013.1 1012.9 3.2
18/08:30am 28.0 31.0 24.0 79 2.8 ESE 15 22 8 12 1013.1 1012.9 3.2
18/08:00am 27.5 30.4 23.9 81 2.5 SE 15 22 8 12 1012.9 1012.7 3.2
18/07:30am 27.0 30.6 24.3 85 1.9 SE 13 19 7 10 1012.7 1012.5 3.2
18/07:00am 26.2 30.7 24.6 91 1.1 SE 9 15 5 8 1012.3 1012.1 3.2
18/06:30am 25.9 30.6 24.9 94 0.7 SE 9 13 5 7 1011.9 1011.7 3.2
18/06:00am 25.7 30.6 24.7 94 0.7 SE 7 11 4 6 1011.6 1011.4 3.2
18/05:30am 25.8 31.2 25.1 96 0.5 SE 6 9 3 5 1011.3 1011.1 3.0
18/05:00am 25.7 31.3 25.5 99 0.1 SE 6 9 3 5 1011.0 1010.8 3.0
18/04:30am 25.6 31.9 25.4 99 0.1 SE 2 6 1 3 1010.7 1010.5 3.0
18/04:00am 25.3 31.4 25.0 98 0.2 SW 2 4 1 2 1010.9 1010.7 3.0
18/03:30am 25.1 30.7 24.8 98 0.2 SSW 4 6 2 3 1010.7 1010.5 3.0
18/03:00am 25.1 30.9 24.6 97 0.3 W 2 4 1 2 1010.8 1010.6 3.0
18/02:30am 25.3 30.5 24.8 97 0.3 ENE 6 13 3 7 1011.4 1011.2 2.6
18/02:00am 25.3 29.8 23.9 92 1.0 ENE 7 15 4 8 1011.7 1011.5 1.0
18/01:30am 25.6 29.3 23.3 87 1.6 NE 9 19 5 10 1011.6 1011.4 0.6
18/01:00am 26.5 31.1 24.2 87 1.6 NE 7 13 4 7 1011.9 1011.7 0.6
18/12:30am 26.9 32.8 25.3 91 1.1 NE 4 7 2 4 1011.9 1011.7 0.6
18/12:00am 27.1 31.7 25.3 90 1.3 ESE 11 19 6 10 1012.0 1011.8 0.6
 
Date/Time
CST
Temp
°C
App
Temp
°C
Dew
Point
Rel
Hum
%
Delta-T
°C
Wind Press
QNH
hPa
Press
MSL
hPa
Rain
since 9 am
mm
Dir
 
Spd
km/h
Gust
km/h
Spd
kts
Gust
kts
17/11:30pm 26.5 32.4 25.3 93 0.8 ENE 4 7 2 4 1012.3 1012.1 0.6
17/11:00pm 25.9 30.2 23.6 87 1.6 SE 7 19 4 10 1012.3 1012.1 0.6
17/10:30pm 26.3 30.8 23.0 82 2.2 NNE 4 6 2 3 1012.3 1012.1 0.0
17/10:00pm 28.4 32.8 24.4 79 2.8 E 9 17 5 9 1012.3 1012.1 0.0
17/09:30pm 28.4 33.4 24.8 81 2.5 E 7 15 4 8 1012.4 1012.2 0.0
17/09:00pm 28.1 33.1 24.5 81 2.5 ENE 6 9 3 5 1012.0 1011.8 0.0
17/08:30pm 28.0 33.1 24.6 82 2.4 ENE 6 11 3 6 1011.6 1011.4 0.0
17/08:00pm 27.6 32.4 24.2 82 2.4 ENE 6 7 3 4 1011.4 1011.2 0.0
17/07:30pm 27.5 32.9 23.9 81 2.5 ENE 2 6 1 3 1010.7 1010.5 0.0
17/07:00pm 28.1 33.0 23.7 77 3.0 NE 4 7 2 4 1010.6 1010.4 0.0
17/06:30pm 28.6 32.8 23.5 74 3.5 ENE 7 15 4 8 1010.5 1010.3 0.0
17/06:00pm 29.1 33.3 23.5 72 3.9 ENE 7 17 4 9 1010.3 1010.1 0.0
17/05:30pm 29.4 32.4 23.4 70 4.1 E 13 20 7 11 1010.2 1010.0 0.0
17/05:00pm 29.9 33.0 23.6 69 4.3 E 13 22 7 12 1010.2 1010.0 0.0
17/04:30pm 30.2 33.0 23.6 67 4.6 E 15 20 8 11 1010.0 1009.8 0.0
17/04:00pm 30.3 33.0 23.5 67 4.7 E 15 20 8 11 1010.0 1009.8 0.0
17/03:30pm 30.5 33.4 23.9 68 4.6 E 15 20 8 11 1010.1 1009.9 0.0
17/03:00pm 30.6 33.4 24.3 69 4.4 E 17 24 9 13 1010.1 1009.9 0.0
17/02:30pm 30.6 33.6 24.7 71 4.1 E 17 26 9 14 1010.4 1010.2 0.0
17/02:00pm 30.8 34.2 25.2 72 4.0 E 17 24 9 13 1010.9 1010.7 0.0
17/01:30pm 30.3 33.2 24.4 70 4.1 E 17 24 9 13 1011.4 1011.2 0.0
17/01:00pm 30.5 32.9 24.2 69 4.4 E 19 24 10 13 1011.7 1011.5 0.0
17/12:30pm 30.6 33.5 24.5 70 4.3 E 17 26 9 14 1012.2 1012.0 0.0
17/12:00pm 30.1 33.5 24.7 73 3.8 E 15 24 8 13 1012.5 1012.3 0.0
17/11:30am 30.3 33.2 25.1 73 3.7 ESE 19 24 10 13 1013.0 1012.8 0.0
17/11:00am 29.9 33.1 25.0 75 3.4 ESE 17 24 9 13 1013.3 1013.1 0.0
17/10:30am 29.8 33.1 25.1 76 3.3 ESE 17 24 9 13 1013.3 1013.1 0.0
17/10:00am 29.3 31.8 24.4 75 3.4 ESE 19 28 10 15 1013.5 1013.3 0.0
17/09:30am 27.9 31.1 23.7 78 2.9 ESE 13 19 7 10 1013.6 1013.4 0.0
17/09:00am 28.7 31.5 24.3 77 3.1 SE 17 22 9 12 1013.5 1013.3 16.4
17/08:30am 27.7 31.1 24.1 81 2.5 SE 13 20 7 11 1013.5 1013.3 16.4

Other Formats:

Comma delimited format used in spreadsheet applications
http://www.bom.gov.au/fwo/IDD60801/IDD60801.94139.axf

JavaScript Object Notation format (JSON) in row-major order
http://www.bom.gov.au/fwo/IDD60801/IDD60801.94139.json